createdAt,value
2017-12-09T00:00:05.101Z,1002.72
2017-12-09T00:00:31.211Z,1002.72
2017-12-09T00:00:57.372Z,1002.74
2017-12-09T00:01:23.474Z,1002.75
2017-12-09T00:01:49.589Z,1002.81
2017-12-09T00:02:15.699Z,1002.8
2017-12-09T00:02:41.810Z,1002.75
2017-12-09T00:03:07.924Z,1002.74
2017-12-09T00:03:34.039Z,1002.73
2017-12-09T00:04:00.148Z,1002.78
2017-12-09T00:04:26.283Z,1002.8
2017-12-09T00:04:52.418Z,1002.74
2017-12-09T00:05:18.547Z,1002.76
2017-12-09T00:05:44.665Z,1002.74
2017-12-09T00:06:10.788Z,1002.71
2017-12-09T00:06:36.901Z,1002.73
2017-12-09T00:07:03.033Z,1002.8
2017-12-09T00:07:29.141Z,1002.77
2017-12-09T00:07:55.273Z,1002.76
2017-12-09T00:08:21.386Z,1002.77
2017-12-09T00:08:47.499Z,1002.73
2017-12-09T00:09:13.611Z,1002.73
2017-12-09T00:09:39.726Z,1002.69
2017-12-09T00:10:05.858Z,1002.76
2017-12-09T00:10:31.970Z,1002.72
2017-12-09T00:10:58.094Z,1002.71
2017-12-09T00:11:24.208Z,1002.68
2017-12-09T00:11:50.490Z,1002.7
2017-12-09T00:12:16.609Z,1002.67
2017-12-09T00:12:42.719Z,1002.69
2017-12-09T00:13:08.842Z,1002.72
2017-12-09T00:13:34.952Z,1002.69
2017-12-09T00:14:01.087Z,1002.78
2017-12-09T00:14:27.204Z,1002.77
2017-12-09T00:14:53.319Z,1002.78
2017-12-09T00:15:19.434Z,1002.77
2017-12-09T00:15:45.543Z,1002.82
2017-12-09T00:16:11.652Z,1002.77
2017-12-09T00:16:37.764Z,1002.82
2017-12-09T00:17:03.898Z,1002.8
2017-12-09T00:17:30.034Z,1002.84
2017-12-09T00:17:56.147Z,1002.86
2017-12-09T00:18:22.277Z,1002.87
2017-12-09T00:18:48.391Z,1002.84
2017-12-09T00:19:14.501Z,1002.85
2017-12-09T00:19:40.620Z,1002.86
2017-12-09T00:20:06.798Z,1002.81
2017-12-09T00:20:32.905Z,1002.78
2017-12-09T00:20:59.021Z,1002.82
2017-12-09T00:21:25.134Z,1002.81
2017-12-09T00:21:51.244Z,1002.77
2017-12-09T00:22:17.358Z,1002.86
2017-12-09T00:22:43.495Z,1002.82
2017-12-09T00:23:09.609Z,1002.91
2017-12-09T00:23:35.718Z,1002.8
2017-12-09T00:24:01.832Z,1002.83
2017-12-09T00:24:27.947Z,1002.8
2017-12-09T00:24:54.056Z,1002.78
2017-12-09T00:25:20.175Z,1002.76
2017-12-09T00:25:46.393Z,1002.78
2017-12-09T00:26:12.418Z,1002.81
2017-12-09T00:26:38.530Z,1002.79
2017-12-09T00:27:04.848Z,1002.8
2017-12-09T00:27:30.967Z,1002.81
2017-12-09T00:27:57.079Z,1002.77
2017-12-09T00:28:23.194Z,1002.83
2017-12-09T00:28:49.306Z,1002.82
2017-12-09T00:29:15.418Z,1002.76
2017-12-09T00:29:41.534Z,1002.8
2017-12-09T00:30:07.647Z,1002.81
2017-12-09T00:30:33.755Z,1002.83
2017-12-09T00:30:59.872Z,1002.78
2017-12-09T00:31:25.991Z,1002.83
2017-12-09T00:31:52.101Z,1002.75
2017-12-09T00:32:18.219Z,1002.8
2017-12-09T00:32:44.335Z,1002.83
2017-12-09T00:33:10.442Z,1002.79
2017-12-09T00:33:36.557Z,1002.78
2017-12-09T00:34:02.669Z,1002.78
2017-12-09T00:34:28.780Z,1002.79
2017-12-09T00:34:54.895Z,1002.79
2017-12-09T00:35:21.007Z,1002.78
2017-12-09T00:35:47.124Z,1002.81
2017-12-09T00:36:13.237Z,1002.8
2017-12-09T00:36:39.343Z,1002.81
2017-12-09T00:37:05.460Z,1002.83
2017-12-09T00:37:31.576Z,1002.8
2017-12-09T00:37:57.686Z,1002.85
2017-12-09T00:38:23.808Z,1002.82
2017-12-09T00:38:49.929Z,1002.82
2017-12-09T00:39:16.057Z,1002.81
2017-12-09T00:39:42.173Z,1002.76
2017-12-09T00:40:08.285Z,1002.75
2017-12-09T00:40:34.396Z,1002.74
2017-12-09T00:41:00.508Z,1002.81
2017-12-09T00:41:26.614Z,1002.79
2017-12-09T00:41:52.732Z,1002.8
2017-12-09T00:42:18.861Z,1002.74
2017-12-09T00:42:44.972Z,1002.77
2017-12-09T00:43:11.086Z,1002.68
2017-12-09T00:43:37.222Z,1002.75
2017-12-09T00:44:03.330Z,1002.76
2017-12-09T00:44:29.443Z,1002.78
2017-12-09T00:44:55.602Z,1002.76
2017-12-09T00:45:21.695Z,1002.8
2017-12-09T00:45:47.803Z,1002.77
2017-12-09T00:46:13.914Z,1002.8
2017-12-09T00:46:40.030Z,1002.77
2017-12-09T00:47:06.176Z,1002.72
2017-12-09T00:47:32.289Z,1002.74
2017-12-09T00:47:58.397Z,1002.79
2017-12-09T00:48:24.518Z,1002.72
2017-12-09T00:48:50.644Z,1002.76
2017-12-09T00:49:16.762Z,1002.67
2017-12-09T00:49:42.889Z,1002.74
2017-12-09T00:50:09.007Z,1002.75
2017-12-09T00:50:35.124Z,1002.77
2017-12-09T00:51:01.255Z,1002.74
2017-12-09T00:51:27.376Z,1002.76
2017-12-09T00:51:53.484Z,1002.77
2017-12-09T00:52:19.603Z,1002.76
2017-12-09T00:52:45.719Z,1002.74
2017-12-09T00:53:11.827Z,1002.8
2017-12-09T00:53:37.956Z,1002.77
2017-12-09T00:54:04.068Z,1002.74
2017-12-09T00:54:30.191Z,1002.76
2017-12-09T00:54:56.306Z,1002.76
2017-12-09T00:55:22.420Z,1002.79
2017-12-09T00:55:48.549Z,1002.78
2017-12-09T00:56:14.659Z,1002.78
2017-12-09T00:56:40.783Z,1002.79
2017-12-09T00:57:06.900Z,1002.82
2017-12-09T00:57:33.013Z,1002.76
2017-12-09T00:57:59.129Z,1002.74
2017-12-09T00:58:25.245Z,1002.65
2017-12-09T00:58:51.364Z,1002.73
2017-12-09T00:59:17.496Z,1002.7
2017-12-09T00:59:43.623Z,1002.72
2017-12-09T01:00:09.738Z,1002.77
2017-12-09T01:00:35.888Z,1002.71
2017-12-09T01:01:02.008Z,1002.73
2017-12-09T01:01:28.122Z,1002.74
2017-12-09T01:01:54.233Z,1002.7
2017-12-09T01:02:20.351Z,1002.74
2017-12-09T01:02:46.461Z,1002.74
2017-12-09T01:03:12.575Z,1002.73
2017-12-09T01:03:38.682Z,1002.72
2017-12-09T01:04:04.803Z,1002.75
2017-12-09T01:04:30.918Z,1002.77
2017-12-09T01:04:57.051Z,1002.81
2017-12-09T01:05:23.163Z,1002.84
2017-12-09T01:05:49.305Z,1002.85
2017-12-09T01:06:15.408Z,1002.79
2017-12-09T01:06:41.518Z,1002.81
2017-12-09T01:07:07.640Z,1002.86
2017-12-09T01:07:33.754Z,1002.85
2017-12-09T01:07:59.871Z,1002.86
2017-12-09T01:08:25.993Z,1002.78
2017-12-09T01:08:52.116Z,1002.8
2017-12-09T01:09:18.256Z,1002.83
2017-12-09T01:09:44.366Z,1002.85
2017-12-09T01:10:10.487Z,1002.87
2017-12-09T01:10:36.595Z,1002.85
2017-12-09T01:11:02.708Z,1002.86
2017-12-09T01:11:28.821Z,1002.91
2017-12-09T01:11:54.936Z,1002.86
2017-12-09T01:12:21.047Z,1002.9
2017-12-09T01:12:47.167Z,1002.9
2017-12-09T01:13:13.317Z,1002.95
2017-12-09T01:13:39.428Z,1002.89
2017-12-09T01:14:05.544Z,1002.92
2017-12-09T01:14:31.656Z,1002.92
2017-12-09T01:14:57.765Z,1002.89
2017-12-09T01:15:23.883Z,1002.91
2017-12-09T01:15:49.998Z,1002.81
2017-12-09T01:16:16.111Z,1002.88
2017-12-09T01:16:42.226Z,1002.89
2017-12-09T01:17:08.336Z,1002.84
2017-12-09T01:17:34.452Z,1002.89
2017-12-09T01:18:00.568Z,1002.89
2017-12-09T01:18:26.691Z,1002.87
2017-12-09T01:18:52.805Z,1002.93
2017-12-09T01:19:18.912Z,1002.94
2017-12-09T01:19:45.028Z,1002.9
2017-12-09T01:20:11.138Z,1002.94
2017-12-09T01:20:37.257Z,1002.96
2017-12-09T01:21:03.369Z,1002.81
2017-12-09T01:21:29.485Z,1002.95
2017-12-09T01:21:55.596Z,1002.99
2017-12-09T01:22:21.707Z,1003.01
2017-12-09T01:22:47.824Z,1002.96
2017-12-09T01:23:13.959Z,1002.98
2017-12-09T01:23:40.075Z,1002.98
2017-12-09T01:24:06.185Z,1003
2017-12-09T01:24:32.311Z,1003.04
2017-12-09T01:24:58.423Z,1002.98
2017-12-09T01:25:24.557Z,1002.93
2017-12-09T01:25:50.668Z,1002.92
2017-12-09T01:26:16.787Z,1003.04
2017-12-09T01:26:42.911Z,1003.04
2017-12-09T01:27:09.020Z,1002.97
2017-12-09T01:27:35.130Z,1002.98
2017-12-09T01:28:01.249Z,1003.02
2017-12-09T01:28:27.360Z,1002.98
2017-12-09T01:28:53.465Z,1002.98
2017-12-09T01:29:19.580Z,1003.06
2017-12-09T01:29:45.693Z,1003.02
2017-12-09T01:30:11.813Z,1003
2017-12-09T01:30:37.929Z,1002.99
2017-12-09T01:31:04.038Z,1003.02
2017-12-09T01:31:30.179Z,1002.95
2017-12-09T01:31:56.287Z,1002.97
2017-12-09T01:32:22.404Z,1002.92
2017-12-09T01:32:48.517Z,1002.94
2017-12-09T01:33:14.622Z,1002.92
2017-12-09T01:33:40.739Z,1002.93
2017-12-09T01:34:06.855Z,1003.02
2017-12-09T01:34:32.967Z,1002.93
2017-12-09T01:34:59.076Z,1002.88
2017-12-09T01:35:25.191Z,1002.85
2017-12-09T01:35:51.303Z,1002.96
2017-12-09T01:36:17.441Z,1002.95
2017-12-09T01:36:43.550Z,1002.98
2017-12-09T01:37:09.687Z,1003
2017-12-09T01:37:35.797Z,1003
2017-12-09T01:38:01.918Z,1003.03
2017-12-09T01:38:28.027Z,1002.95
2017-12-09T01:38:54.138Z,1003.01
2017-12-09T01:39:20.250Z,1002.95
2017-12-09T01:39:46.364Z,1002.95
2017-12-09T01:40:12.480Z,1002.93
2017-12-09T01:40:38.594Z,1002.91
2017-12-09T01:41:04.709Z,1002.87
2017-12-09T01:41:30.819Z,1002.9
2017-12-09T01:41:56.932Z,1002.9
2017-12-09T01:42:23.043Z,1002.87
2017-12-09T01:42:49.153Z,1002.91
2017-12-09T01:43:15.270Z,1002.93
2017-12-09T01:43:41.391Z,1002.88
2017-12-09T01:44:07.523Z,1002.89
2017-12-09T01:44:33.635Z,1002.88
2017-12-09T01:44:59.743Z,1002.94
2017-12-09T01:45:25.875Z,1002.88
2017-12-09T01:45:51.994Z,1002.9
2017-12-09T01:46:18.103Z,1002.78
2017-12-09T01:46:44.218Z,1003.02
2017-12-09T01:47:10.326Z,1002.75
2017-12-09T01:47:36.443Z,1002.85
2017-12-09T01:48:02.564Z,1002.9
2017-12-09T01:48:28.666Z,1002.91
2017-12-09T01:48:54.778Z,1002.91
2017-12-09T01:49:20.896Z,1003
2017-12-09T01:49:47.009Z,1002.92
2017-12-09T01:50:13.118Z,1002.91
2017-12-09T01:50:39.237Z,1002.97
2017-12-09T01:51:05.347Z,1003.02
2017-12-09T01:51:31.463Z,1003.03
2017-12-09T01:51:57.572Z,1003.04
2017-12-09T01:52:23.690Z,1002.98
2017-12-09T01:52:49.797Z,1003.05
2017-12-09T01:53:15.907Z,1003.05
2017-12-09T01:53:42.022Z,1002.97
2017-12-09T01:54:08.129Z,1003.01
2017-12-09T01:54:34.245Z,1003.04
2017-12-09T01:55:00.364Z,1002.94
2017-12-09T01:55:26.475Z,1002.89
2017-12-09T01:55:52.588Z,1002.95
2017-12-09T01:56:18.705Z,1002.93
2017-12-09T01:56:44.813Z,1002.92
2017-12-09T01:57:10.935Z,1002.93
2017-12-09T01:57:37.048Z,1002.84
2017-12-09T01:58:03.166Z,1002.98
2017-12-09T01:58:29.274Z,1002.91
2017-12-09T01:58:55.391Z,1002.91
2017-12-09T01:59:21.523Z,1002.94
2017-12-09T01:59:47.635Z,1002.87
2017-12-09T02:00:13.750Z,1002.98
2017-12-09T02:00:39.881Z,1002.94
2017-12-09T02:01:05.999Z,1002.91
2017-12-09T02:01:32.108Z,1002.97
2017-12-09T02:01:58.226Z,1002.96
2017-12-09T02:02:24.334Z,1002.99
2017-12-09T02:02:50.447Z,1002.95
2017-12-09T02:03:16.563Z,1003.03
2017-12-09T02:03:42.681Z,1002.88
2017-12-09T02:04:08.794Z,1002.97
2017-12-09T02:04:34.909Z,1003.02
2017-12-09T02:05:01.027Z,1002.96
2017-12-09T02:05:27.161Z,1002.9
2017-12-09T02:05:53.291Z,1002.93
2017-12-09T02:06:19.409Z,1002.93
2017-12-09T02:06:45.520Z,1002.94
2017-12-09T02:07:11.638Z,1002.93
2017-12-09T02:07:37.751Z,1002.96
2017-12-09T02:08:03.861Z,1003.09
2017-12-09T02:08:29.980Z,1003.05
2017-12-09T02:08:56.095Z,1003.01
2017-12-09T02:09:22.205Z,1003.04
2017-12-09T02:09:48.319Z,1003.06
2017-12-09T02:10:14.435Z,1003.05
2017-12-09T02:10:40.551Z,1003.14
2017-12-09T02:11:06.684Z,1003.06
2017-12-09T02:11:32.814Z,1003
2017-12-09T02:11:58.934Z,1003.06
2017-12-09T02:12:25.045Z,1003.13
2017-12-09T02:12:51.161Z,1003.01
2017-12-09T02:13:17.270Z,1003.13
2017-12-09T02:13:43.388Z,1003.17
2017-12-09T02:14:09.507Z,1003.04
2017-12-09T02:14:35.635Z,1003.05
2017-12-09T02:15:01.752Z,1003.13
2017-12-09T02:15:27.860Z,1003.11
2017-12-09T02:15:53.977Z,1003.07
2017-12-09T02:16:20.091Z,1003.07
2017-12-09T02:16:46.197Z,1003.13
2017-12-09T02:17:12.312Z,1003.05
2017-12-09T02:17:38.428Z,1003.08
2017-12-09T02:18:04.560Z,1003.05
2017-12-09T02:18:30.698Z,1003.04
2017-12-09T02:18:56.828Z,1003
2017-12-09T02:19:22.939Z,1003.01
2017-12-09T02:19:49.057Z,1002.89
2017-12-09T02:20:15.172Z,1003.01
2017-12-09T02:20:41.288Z,1002.93
2017-12-09T02:21:07.399Z,1002.98
2017-12-09T02:21:33.516Z,1002.96
2017-12-09T02:21:59.623Z,1003.02
2017-12-09T02:22:25.740Z,1003.04
2017-12-09T02:22:51.852Z,1003.08
2017-12-09T02:23:17.968Z,1003.11
2017-12-09T02:23:44.074Z,1003.01
2017-12-09T02:24:10.190Z,1003.01
2017-12-09T02:24:36.322Z,1003.05
2017-12-09T02:25:02.447Z,1002.9
2017-12-09T02:25:28.555Z,1002.97
2017-12-09T02:25:54.671Z,1002.98
2017-12-09T02:26:20.793Z,1003
2017-12-09T02:26:46.911Z,1003.03
2017-12-09T02:27:13.023Z,1002.97
2017-12-09T02:27:39.147Z,1002.98
2017-12-09T02:28:05.251Z,1002.94
2017-12-09T02:28:31.367Z,1002.92
2017-12-09T02:28:57.483Z,1002.94
2017-12-09T02:29:23.601Z,1003.02
2017-12-09T02:29:49.708Z,1003.01
2017-12-09T02:30:15.823Z,1003.06
2017-12-09T02:30:41.933Z,1003.04
2017-12-09T02:31:08.046Z,1003.03
2017-12-09T02:31:34.182Z,1003.03
2017-12-09T02:32:00.309Z,1003.06
2017-12-09T02:32:26.428Z,1002.94
2017-12-09T02:32:52.538Z,1003
2017-12-09T02:33:18.649Z,1002.96
2017-12-09T02:33:44.771Z,1002.95
2017-12-09T02:34:10.887Z,1002.92
2017-12-09T02:34:36.997Z,1002.85
2017-12-09T02:35:03.115Z,1002.95
2017-12-09T02:35:29.225Z,1002.89
2017-12-09T02:35:55.337Z,1002.84
2017-12-09T02:36:21.456Z,1002.91
2017-12-09T02:36:47.590Z,1002.9
2017-12-09T02:37:13.701Z,1002.9
2017-12-09T02:37:39.816Z,1002.93
2017-12-09T02:38:05.931Z,1002.97
2017-12-09T02:38:32.062Z,1002.93
2017-12-09T02:38:58.178Z,1002.83
2017-12-09T02:39:24.293Z,1002.9
2017-12-09T02:39:50.406Z,1002.93
2017-12-09T02:40:16.543Z,1002.81
2017-12-09T02:40:42.653Z,1002.8
2017-12-09T02:41:08.766Z,1002.83
2017-12-09T02:41:34.882Z,1002.82
2017-12-09T02:42:00.994Z,1002.95
2017-12-09T02:42:27.133Z,1002.84
2017-12-09T02:42:53.247Z,1002.89
2017-12-09T02:43:19.360Z,1002.87
2017-12-09T02:43:45.471Z,1002.93
2017-12-09T02:44:11.610Z,1002.83
2017-12-09T02:44:37.719Z,1002.9
2017-12-09T02:45:03.853Z,1002.88
2017-12-09T02:45:29.969Z,1002.92
2017-12-09T02:45:56.083Z,1002.84
2017-12-09T02:46:22.196Z,1002.92
2017-12-09T02:46:48.311Z,1002.94
2017-12-09T02:47:14.426Z,1002.92
2017-12-09T02:47:40.539Z,1002.93
2017-12-09T02:48:06.657Z,1002.99
2017-12-09T02:48:32.764Z,1002.93
2017-12-09T02:48:58.875Z,1002.93
2017-12-09T02:49:25.012Z,1002.85
2017-12-09T02:49:51.129Z,1002.95
2017-12-09T02:50:17.241Z,1002.88
2017-12-09T02:50:43.365Z,1002.88
2017-12-09T02:51:09.474Z,1002.83
2017-12-09T02:51:35.594Z,1002.81
2017-12-09T02:52:01.702Z,1002.78
2017-12-09T02:52:27.814Z,1002.72
2017-12-09T02:52:53.929Z,1002.79
2017-12-09T02:53:20.039Z,1002.83
2017-12-09T02:53:46.164Z,1002.68
2017-12-09T02:54:12.277Z,1002.83
2017-12-09T02:54:38.384Z,1002.69
2017-12-09T02:55:04.502Z,1002.88
2017-12-09T02:55:30.636Z,1002.64
2017-12-09T02:55:56.754Z,1002.72
2017-12-09T02:56:22.866Z,1002.8
2017-12-09T02:56:48.976Z,1002.7
2017-12-09T02:57:15.111Z,1002.75
2017-12-09T02:57:41.226Z,1002.78
2017-12-09T02:58:07.337Z,1002.75
2017-12-09T02:58:33.449Z,1002.79
2017-12-09T02:58:59.566Z,1002.8
2017-12-09T02:59:25.675Z,1002.79
2017-12-09T02:59:51.789Z,1002.8
2017-12-09T03:00:17.907Z,1002.72
2017-12-09T03:00:44.020Z,1002.71
2017-12-09T03:01:10.137Z,1002.84
2017-12-09T03:01:36.245Z,1002.79
2017-12-09T03:02:02.357Z,1002.75
2017-12-09T03:02:28.475Z,1002.85
2017-12-09T03:02:54.590Z,1002.82
2017-12-09T03:03:20.702Z,1002.82
2017-12-09T03:03:46.820Z,1002.8
2017-12-09T03:04:12.950Z,1002.7
2017-12-09T03:04:39.078Z,1002.84
2017-12-09T03:05:05.192Z,1002.76
2017-12-09T03:05:31.309Z,1002.65
2017-12-09T03:05:57.417Z,1002.69
2017-12-09T03:06:23.532Z,1002.76
2017-12-09T03:06:49.648Z,1002.68
2017-12-09T03:07:15.761Z,1002.7
2017-12-09T03:07:41.865Z,1002.74
2017-12-09T03:08:07.976Z,1002.69
2017-12-09T03:08:34.095Z,1002.7
2017-12-09T03:09:00.214Z,1002.7
2017-12-09T03:09:26.330Z,1002.74
2017-12-09T03:09:52.458Z,1002.86
2017-12-09T03:10:18.574Z,1002.8
2017-12-09T03:10:44.715Z,1002.86
2017-12-09T03:11:10.843Z,1002.79
2017-12-09T03:11:36.959Z,1002.74
2017-12-09T03:12:03.087Z,1002.79
2017-12-09T03:12:29.191Z,1002.85
2017-12-09T03:12:55.301Z,1002.79
2017-12-09T03:13:21.414Z,1002.77
2017-12-09T03:13:47.531Z,1002.74
2017-12-09T03:14:13.645Z,1002.86
2017-12-09T03:14:39.751Z,1002.85
2017-12-09T03:15:05.884Z,1002.77
2017-12-09T03:15:32.002Z,1002.81
2017-12-09T03:15:58.112Z,1002.86
2017-12-09T03:16:24.232Z,1002.73
2017-12-09T03:16:50.368Z,1002.71
2017-12-09T03:17:16.481Z,1002.67
2017-12-09T03:17:42.590Z,1002.63
2017-12-09T03:18:08.709Z,1002.7
2017-12-09T03:18:34.826Z,1002.68
2017-12-09T03:19:00.942Z,1002.65
2017-12-09T03:19:27.056Z,1002.65
2017-12-09T03:19:53.164Z,1002.5
2017-12-09T03:20:19.283Z,1002.67
2017-12-09T03:20:45.395Z,1002.65
2017-12-09T03:21:11.504Z,1002.58
2017-12-09T03:21:37.624Z,1002.62
2017-12-09T03:22:03.739Z,1002.61
2017-12-09T03:22:29.848Z,1002.53
2017-12-09T03:22:55.966Z,1002.65
2017-12-09T03:23:22.080Z,1002.62
2017-12-09T03:23:48.208Z,1002.63
2017-12-09T03:24:14.324Z,1002.59
2017-12-09T03:24:40.440Z,1002.6
2017-12-09T03:25:06.549Z,1002.61
2017-12-09T03:25:32.683Z,1002.66
2017-12-09T03:25:58.802Z,1002.61
2017-12-09T03:26:24.947Z,1002.58
2017-12-09T03:26:51.062Z,1002.64
2017-12-09T03:27:17.206Z,1002.67
2017-12-09T03:27:43.343Z,1002.6
2017-12-09T03:28:09.471Z,1002.66
2017-12-09T03:28:35.581Z,1002.62
2017-12-09T03:29:01.693Z,1002.61
2017-12-09T03:29:27.811Z,1002.57
2017-12-09T03:29:53.929Z,1002.59
2017-12-09T03:30:20.042Z,1002.59
2017-12-09T03:30:46.162Z,1002.56
2017-12-09T03:31:12.268Z,1002.55
2017-12-09T03:31:38.404Z,1002.51
2017-12-09T03:32:04.514Z,1002.54
2017-12-09T03:32:30.623Z,1002.59
2017-12-09T03:32:56.731Z,1002.52
2017-12-09T03:33:22.848Z,1002.61
2017-12-09T03:33:48.958Z,1002.52
2017-12-09T03:34:15.079Z,1002.66
2017-12-09T03:34:41.196Z,1002.56
2017-12-09T03:35:07.307Z,1002.66
2017-12-09T03:35:33.430Z,1002.63
2017-12-09T03:35:59.540Z,1002.64
2017-12-09T03:36:25.650Z,1002.6
2017-12-09T03:36:51.785Z,1002.55
2017-12-09T03:37:17.916Z,1002.48
2017-12-09T03:37:44.010Z,1002.58
2017-12-09T03:38:10.128Z,1002.57
2017-12-09T03:38:36.245Z,1002.56
2017-12-09T03:39:02.353Z,1002.54
2017-12-09T03:39:28.471Z,1002.42
2017-12-09T03:39:54.584Z,1002.57
2017-12-09T03:40:20.696Z,1002.53
2017-12-09T03:40:46.816Z,1002.53
2017-12-09T03:41:12.926Z,1002.56
2017-12-09T03:41:39.043Z,1002.58
2017-12-09T03:42:05.156Z,1002.55
2017-12-09T03:42:31.273Z,1002.52
2017-12-09T03:42:57.385Z,1002.56
2017-12-09T03:43:23.501Z,1002.56
2017-12-09T03:43:49.616Z,1002.51
2017-12-09T03:44:15.732Z,1002.5
2017-12-09T03:44:41.849Z,1002.46
2017-12-09T03:45:07.961Z,1002.55
2017-12-09T03:45:34.098Z,1002.63
2017-12-09T03:46:00.207Z,1002.55
2017-12-09T03:46:26.341Z,1002.45
2017-12-09T03:46:52.459Z,1002.46
2017-12-09T03:47:18.593Z,1002.49
2017-12-09T03:47:44.705Z,1002.49
2017-12-09T03:48:10.824Z,1002.53
2017-12-09T03:48:36.935Z,1002.57
2017-12-09T03:49:03.051Z,1002.45
2017-12-09T03:49:29.187Z,1002.48
2017-12-09T03:49:55.295Z,1002.43
2017-12-09T03:50:21.415Z,1002.55
2017-12-09T03:50:47.531Z,1002.39
2017-12-09T03:51:13.648Z,1002.46
2017-12-09T03:51:39.784Z,1002.39
2017-12-09T03:52:05.887Z,1002.36
2017-12-09T03:52:31.998Z,1002.41
2017-12-09T03:52:58.115Z,1002.39
2017-12-09T03:53:24.224Z,1002.36
2017-12-09T03:53:50.339Z,1002.4
2017-12-09T03:54:16.459Z,1002.42
2017-12-09T03:54:42.570Z,1002.42
2017-12-09T03:55:08.707Z,1002.4
2017-12-09T03:55:34.814Z,1002.44
2017-12-09T03:56:00.928Z,1002.42
2017-12-09T03:56:27.075Z,1002.42
2017-12-09T03:56:53.186Z,1002.41
2017-12-09T03:57:19.306Z,1002.44
2017-12-09T03:57:45.412Z,1002.51
2017-12-09T03:58:11.525Z,1002.54
2017-12-09T03:58:37.643Z,1002.44
2017-12-09T03:59:03.750Z,1002.4
2017-12-09T03:59:29.864Z,1002.39
2017-12-09T03:59:55.982Z,1002.45
2017-12-09T04:00:22.092Z,1002.48
2017-12-09T04:00:48.211Z,1002.4
2017-12-09T04:01:14.362Z,1002.43
2017-12-09T04:01:40.457Z,1002.46
2017-12-09T04:02:06.575Z,1002.42
2017-12-09T04:02:32.684Z,1002.43
2017-12-09T04:02:58.801Z,1002.44
2017-12-09T04:03:24.915Z,1002.37
2017-12-09T04:03:51.032Z,1002.39
2017-12-09T04:04:17.141Z,1002.47
2017-12-09T04:04:43.259Z,1002.4
2017-12-09T04:05:09.369Z,1002.4
2017-12-09T04:05:35.485Z,1002.56
2017-12-09T04:06:01.598Z,1002.46
2017-12-09T04:06:27.715Z,1002.39
2017-12-09T04:06:53.827Z,1002.41
2017-12-09T04:07:19.960Z,1002.34
2017-12-09T04:07:46.069Z,1002.56
2017-12-09T04:08:12.181Z,1002.44
2017-12-09T04:08:38.299Z,1002.4
2017-12-09T04:09:04.416Z,1002.39
2017-12-09T04:09:30.526Z,1002.45
2017-12-09T04:09:56.640Z,1002.53
2017-12-09T04:10:22.769Z,1002.44
2017-12-09T04:10:48.891Z,1002.42
2017-12-09T04:11:15.020Z,1002.36
2017-12-09T04:11:41.149Z,1002.39
2017-12-09T04:12:07.280Z,1002.38
2017-12-09T04:12:33.398Z,1002.44
2017-12-09T04:12:59.504Z,1002.53
2017-12-09T04:13:25.619Z,1002.39
2017-12-09T04:13:51.738Z,1002.44
2017-12-09T04:14:17.849Z,1002.37
2017-12-09T04:14:43.962Z,1002.63
2017-12-09T04:15:10.075Z,1002.41
2017-12-09T04:15:36.194Z,1002.54
2017-12-09T04:16:02.310Z,1002.46
2017-12-09T04:16:28.427Z,1002.48
2017-12-09T04:16:54.548Z,1002.57
2017-12-09T04:17:20.669Z,1002.39
2017-12-09T04:17:46.779Z,1002.54
2017-12-09T04:18:12.936Z,1002.47
2017-12-09T04:18:39.011Z,1002.41
2017-12-09T04:19:05.123Z,1002.37
2017-12-09T04:19:31.263Z,1002.36
2017-12-09T04:19:57.370Z,1002.39
2017-12-09T04:20:23.491Z,1002.23
2017-12-09T04:20:49.598Z,1002.44
2017-12-09T04:21:15.717Z,1002.32
2017-12-09T04:21:41.836Z,1002.38
2017-12-09T04:22:07.956Z,1002.27
2017-12-09T04:22:34.060Z,1002.28
2017-12-09T04:23:00.173Z,1002.33
2017-12-09T04:23:26.291Z,1002.36
2017-12-09T04:23:52.400Z,1002.29
2017-12-09T04:24:18.520Z,1002.27
2017-12-09T04:24:44.657Z,1002.35
2017-12-09T04:25:10.805Z,1002.22
2017-12-09T04:25:36.887Z,1002.25
2017-12-09T04:26:02.998Z,1002.31
2017-12-09T04:26:29.129Z,1002.38
2017-12-09T04:26:55.245Z,1002.2
2017-12-09T04:27:21.354Z,1002.28
2017-12-09T04:27:47.475Z,1002.1
2017-12-09T04:28:13.590Z,1002.21
2017-12-09T04:28:39.698Z,1002.22
2017-12-09T04:29:05.812Z,1002.18
2017-12-09T04:29:31.931Z,1002.25
2017-12-09T04:29:58.043Z,1002.15
2017-12-09T04:30:24.153Z,1002.25
2017-12-09T04:30:50.275Z,1002.23
2017-12-09T04:31:16.386Z,1002.21
2017-12-09T04:31:42.497Z,1002.3
2017-12-09T04:32:08.617Z,1002.28
2017-12-09T04:32:34.725Z,1002.3
2017-12-09T04:33:00.842Z,1002.25
2017-12-09T04:33:26.957Z,1002.27
2017-12-09T04:33:53.068Z,1002.32
2017-12-09T04:34:19.185Z,1002.23
2017-12-09T04:34:45.295Z,1002.22
2017-12-09T04:35:11.411Z,1002.24
2017-12-09T04:35:37.540Z,1002.24
2017-12-09T04:36:03.663Z,1002.26
2017-12-09T04:36:29.797Z,1002.25
2017-12-09T04:36:55.931Z,1002.27
2017-12-09T04:37:22.056Z,1002.18
2017-12-09T04:37:48.174Z,1002.15
2017-12-09T04:38:14.282Z,1002.15
2017-12-09T04:38:40.397Z,1002.31
2017-12-09T04:39:06.510Z,1002.28
2017-12-09T04:39:32.623Z,1002.3
2017-12-09T04:39:58.743Z,1002.3
2017-12-09T04:40:24.853Z,1002.26
2017-12-09T04:40:50.971Z,1002.29
2017-12-09T04:41:17.086Z,1002.36
2017-12-09T04:41:43.199Z,1002.29
2017-12-09T04:42:09.320Z,1002.32
2017-12-09T04:42:35.435Z,1002.3
2017-12-09T04:43:01.543Z,1002.3
2017-12-09T04:43:27.660Z,1002.31
2017-12-09T04:43:53.777Z,1002.21
2017-12-09T04:44:19.903Z,1002.32
2017-12-09T04:44:46.027Z,1002.3
2017-12-09T04:45:12.137Z,1002.32
2017-12-09T04:45:38.246Z,1002.09
2017-12-09T04:46:04.365Z,1002.31
2017-12-09T04:46:30.474Z,1002.23
2017-12-09T04:46:56.590Z,1002.26
2017-12-09T04:47:22.707Z,1002.3
2017-12-09T04:47:48.817Z,1002.23
2017-12-09T04:48:14.930Z,1002.21
2017-12-09T04:48:41.047Z,1002.14
2017-12-09T04:49:07.167Z,1002.25
2017-12-09T04:49:33.297Z,1002.29
2017-12-09T04:49:59.417Z,1002.31
2017-12-09T04:50:25.530Z,1002.16
2017-12-09T04:50:51.644Z,1002.19
2017-12-09T04:51:17.758Z,1002.23
2017-12-09T04:51:43.867Z,1002.18
2017-12-09T04:52:09.983Z,1002.15
2017-12-09T04:52:36.118Z,1002.2
2017-12-09T04:53:02.226Z,1002.15
2017-12-09T04:53:28.345Z,1002.19
2017-12-09T04:53:54.457Z,1002.21
2017-12-09T04:54:20.579Z,1002.22
2017-12-09T04:54:46.697Z,1002.26
2017-12-09T04:55:12.808Z,1002.2
2017-12-09T04:55:38.920Z,1002.2
2017-12-09T04:56:05.035Z,1002.17
2017-12-09T04:56:31.166Z,1002.18
2017-12-09T04:56:57.275Z,1002.19
2017-12-09T04:57:23.392Z,1002.24
2017-12-09T04:57:49.507Z,1002.21
2017-12-09T04:58:15.622Z,1002.25
2017-12-09T04:58:41.734Z,1002.25
2017-12-09T04:59:07.847Z,1002.22
2017-12-09T04:59:33.954Z,1002.19
2017-12-09T05:00:00.072Z,1002.23
2017-12-09T05:00:26.184Z,1002.33
2017-12-09T05:00:52.301Z,1002.25
2017-12-09T05:01:18.415Z,1002.27
2017-12-09T05:01:44.534Z,1002.24
2017-12-09T05:02:10.645Z,1002.26
2017-12-09T05:02:36.759Z,1002.33
2017-12-09T05:03:02.872Z,1002.28
2017-12-09T05:03:28.982Z,1002.21
2017-12-09T05:03:55.124Z,1002.37
2017-12-09T05:04:21.231Z,1002.23
2017-12-09T05:04:47.344Z,1002.24
2017-12-09T05:05:13.461Z,1002.24
2017-12-09T05:05:39.576Z,1002.45
2017-12-09T05:06:05.695Z,1002.26
2017-12-09T05:06:31.813Z,1002.25
2017-12-09T05:06:57.950Z,1002.29
2017-12-09T05:07:24.059Z,1002.25
2017-12-09T05:07:50.173Z,1002.33
2017-12-09T05:08:16.282Z,1002.27
2017-12-09T05:08:42.394Z,1002.22
2017-12-09T05:09:08.519Z,1002.25
2017-12-09T05:09:34.630Z,1002.17
2017-12-09T05:10:00.743Z,1002.2
2017-12-09T05:10:26.858Z,1002.2
2017-12-09T05:10:52.976Z,1002.18
2017-12-09T05:11:19.085Z,1002.26
2017-12-09T05:11:45.196Z,1002.2
2017-12-09T05:12:11.312Z,1002.17
2017-12-09T05:12:37.430Z,1002.25
2017-12-09T05:13:03.538Z,1002.27
2017-12-09T05:13:29.655Z,1002.33
2017-12-09T05:13:55.766Z,1002.26
2017-12-09T05:14:21.886Z,1002.24
2017-12-09T05:14:48.002Z,1002.27
2017-12-09T05:15:14.112Z,1002.28
2017-12-09T05:15:40.247Z,1002.29
2017-12-09T05:16:06.364Z,1002.38
2017-12-09T05:16:32.485Z,1002.3
2017-12-09T05:16:58.598Z,1002.29